Kezdőlap
METAR-TAF:

METAR-TAF

Repülőterek :

Caracas, Venezuela

földrajzi szélesség: 10-36N, földrajzi hosszúság: 066-59W, magasság: 43 m

Jelenlegi meteorológiai megfigyelések

A jelentés 32 perccel ezelõtt készült, 12:00 UTC
Szélcsend
Hőmérséklet 25°C
Páratartalom 83%
Légköri nyomás 1013 hPa
Látótávolság 10 km, vagy több
Kevés felhő 1600 lábon

METAR: SVMI 151200Z 00000KT 9999 FEW016 25/22 Q1013

Idő: 08:32 (12:32 UTC)

Előrejelzés

A jelentés 2 órával és 32 perccel ezelõtt készült, 10:00 UTC
Az előrejelzés 15-én 12 óra UTC és 16-én 12 óra UTC között érvényes
Északi szél kt
Látótávolság 10 km, vagy több
Kevés felhő 1600 lábon
10-én 12 óra UTC és 10-én 16 óra UTC között ideiglenes
Északi szél kt
Látótávolság 10 km, vagy több
Kevés felhő 1600 lábon

TAF: SVMI 151000Z 1512/1612 00000KT 9999 FEW016 TX26/18Z TN22/08Z TEMPO 1012/1016 00000KT 9999 FEW016

Meteorológiai megfigyelések és előrejelzések több, mint 4000 repülőtéren (METAR és TAF jelentéseket).

A térképen piros és sárga pontok jelzik az elérhető meteorológiai állomásokat.

Mozgassa az egeret a pont fölött, hogy megjelenjen az állomás neve.

Azután kattintson az időjárási megfigyelések és előrejelzések megtekintéséhez.

A térkép megváltoztatása: kattintson a fekete keresztel jelölt zöld gombra ráközelítéshez, a vonallal jelölt zöld gombra távolításhoz, vagy a zöld nyilakra a szomszédos térképek eléréséhez.


METAR-TAF: